Time;durP1;ratioP1;P1;durP2;ratioP2;P2;SDS_P1;SDS_P2;PMS_P1;PMS_P2;Temp;Humidity;BMP_temperature;BMP_pressure;BME280_temperature;BME280_humidity;BME280_pressure;Samples;Min_cycle;Max_cycle;Signal;HPM_P1;HPM_P2
2022/01/18 00:01:51;;;;;;;;;;;23.80;50.40;;;;;;1559127;75;1954;-68
2022/01/18 00:03:53;;;;;;;;;;;23.80;50.50;;;;;;1582480;75;663;-68
2022/01/18 00:05:55;;;;;;;;;;;23.80;50.50;;;;;;1558431;75;671;-70
2022/01/18 00:07:58;;;;;;;;;;;23.80;50.50;;;;;;1582538;75;755;-72
2022/01/18 00:10:00;;;;;;;;;;;23.80;50.50;;;;;;1558877;75;1130;-68
2022/01/18 00:12:27;;;;;;;;;;;23.80;50.50;;;;;;1582453;75;669;-70
2022/01/18 00:14:13;;;;;;;;;;;23.80;50.50;;;;;;1591674;73;1477;-74
2022/01/18 00:16:23;;;;;;;;;;;23.80;50.50;;;;;;1578640;75;1704;-68
2022/01/18 00:18:17;;;;;;;;;;;23.70;50.60;;;;;;1585451;74;1638;-68
2022/01/18 00:20:22;;;;;;;;;;;23.80;50.60;;;;;;1580636;75;1910;-68
2022/01/18 00:22:21;;;;;;;;;;;23.80;50.60;;;;;;1579924;74;1927;-68
2022/01/18 00:24:23;;;;;;;;;;;23.80;50.60;;;;;;1578829;74;665;-68
2022/01/18 00:26:28;;;;;;;;;;;23.80;50.50;;;;;;1578524;75;665;-68
2022/01/18 00:28:29;;;;;;;;;;;23.80;50.60;;;;;;1562656;75;1654;-68
2022/01/18 00:32:52;;;;;;;;;;;23.80;50.50;;;;;;1583874;74;808;-69
2022/01/18 00:34:40;;;;;;;;;;;23.80;50.60;;;;;;1594522;74;1706;-65
2022/01/18 00:38:52;;;;;;;;;;;23.80;50.50;;;;;;1590495;74;1147;-68
2022/01/18 00:40:53;;;;;;;;;;;23.80;50.60;;;;;;1584809;74;584;-68
2022/01/18 00:42:55;;;;;;;;;;;23.80;50.50;;;;;;1585069;74;1934;-70
2022/01/18 00:44:57;;;;;;;;;;;23.80;50.60;;;;;;1584559;74;644;-76
2022/01/18 00:46:59;;;;;;;;;;;23.80;50.60;;;;;;1585090;74;830;-65
2022/01/18 00:49:02;;;;;;;;;;;23.80;50.50;;;;;;1584947;74;1126;-68
2022/01/18 00:51:05;;;;;;;;;;;23.80;50.50;;;;;;1584939;74;733;-69
2022/01/18 00:53:11;;;;;;;;;;;23.80;50.50;;;;;;1590604;74;837;-68
2022/01/18 00:55:13;;;;;;;;;;;23.80;50.50;;;;;;1584375;74;1572;-68
2022/01/18 00:57:14;;;;;;;;;;;23.80;50.50;;;;;;1576923;74;1757;-71
2022/01/18 00:59:16;;;;;;;;;;;23.80;50.50;;;;;;1576294;75;1180;-70
2022/01/18 01:01:19;;;;;;;;;;;23.80;50.60;;;;;;1610854;73;788;-74
2022/01/18 01:03:20;;;;;;;;;;;23.80;50.60;;;;;;1576184;74;1923;-72
2022/01/18 01:05:22;;;;;;;;;;;23.70;50.50;;;;;;1558883;75;787;-68
2022/01/18 01:07:25;;;;;;;;;;;23.80;50.60;;;;;;1580906;75;784;-68
2022/01/18 01:09:27;;;;;;;;;;;23.80;50.60;;;;;;1558988;75;1192;-69
2022/01/18 01:11:29;;;;;;;;;;;23.80;50.50;;;;;;1582353;75;943;-73
2022/01/18 01:13:31;;;;;;;;;;;23.70;50.60;;;;;;1559066;75;783;-68
2022/01/18 01:15:40;;;;;;;;;;;23.80;50.50;;;;;;1573394;75;728;-70
2022/01/18 01:17:48;;;;;;;;;;;23.70;50.50;;;;;;1557910;75;1668;-69
2022/01/18 01:31:57;;;;;;;;;;;23.80;50.60;;;;;;1580633;75;1564;-69
2022/01/18 01:34:10;;;;;;;;;;;23.80;50.50;;;;;;1597439;74;1642;-68
2022/01/18 01:36:08;;;;;;;;;;;23.70;50.50;;;;;;1591669;73;1547;-72
2022/01/18 01:44:47;;;;;;;;;;;23.70;50.50;;;;;;1597245;73;849;-69
2022/01/18 01:46:49;;;;;;;;;;;23.70;50.50;;;;;;1595924;74;632;-69
2022/01/18 01:48:53;;;;;;;;;;;23.70;50.50;;;;;;1595472;73;1174;-69
2022/01/18 01:51:01;;;;;;;;;;;23.70;50.50;;;;;;1597495;74;1674;-69
2022/01/18 01:52:58;;;;;;;;;;;23.60;50.50;;;;;;1595959;74;1615;-71
2022/01/18 01:55:00;;;;;;;;;;;23.70;50.60;;;;;;1597368;74;707;-72
2022/01/18 01:57:02;;;;;;;;;;;23.70;50.60;;;;;;1596733;73;771;-68
2022/01/18 01:59:04;;;;;;;;;;;23.70;50.70;;;;;;1596458;74;1131;-68
2022/01/18 02:01:06;;;;;;;;;;;23.70;50.70;;;;;;1583560;74;709;-68
2022/01/18 02:03:08;;;;;;;;;;;23.70;50.60;;;;;;1597553;74;1940;-69
2022/01/18 02:05:10;;;;;;;;;;;23.70;50.60;;;;;;1597592;74;708;-73
2022/01/18 02:07:12;;;;;;;;;;;23.70;50.70;;;;;;1596442;73;663;-67
2022/01/18 02:09:14;;;;;;;;;;;23.70;50.70;;;;;;1597658;74;1152;-68
2022/01/18 02:11:16;;;;;;;;;;;23.70;50.70;;;;;;1597523;74;719;-67
2022/01/18 02:13:17;;;;;;;;;;;23.70;50.60;;;;;;1597719;74;771;-67
2022/01/18 02:15:19;;;;;;;;;;;23.70;50.60;;;;;;1596534;73;715;-68
2022/01/18 02:22:01;;;;;;;;;;;23.70;50.60;;;;;;1595846;74;1671;-68
2022/01/18 02:24:04;;;;;;;;;;;23.70;50.50;;;;;;1596183;74;1942;-69
2022/01/18 02:26:06;;;;;;;;;;;23.60;50.50;;;;;;1597469;74;723;-69
2022/01/18 02:28:08;;;;;;;;;;;23.70;50.60;;;;;;1596377;73;748;-70
2022/01/18 02:30:10;;;;;;;;;;;23.70;50.70;;;;;;1587883;73;1192;-69
2022/01/18 02:32:12;;;;;;;;;;;23.70;50.70;;;;;;1578493;74;707;-69
2022/01/18 02:34:15;;;;;;;;;;;23.60;50.60;;;;;;1571454;74;742;-69
2022/01/18 02:36:17;;;;;;;;;;;23.70;50.70;;;;;;1581262;75;757;-68
2022/01/18 02:38:19;;;;;;;;;;;23.60;50.60;;;;;;1596350;73;781;-69
2022/01/18 02:40:21;;;;;;;;;;;23.70;50.80;;;;;;1583868;74;1132;-70
2022/01/18 02:42:26;;;;;;;;;;;23.70;50.70;;;;;;1591607;74;1933;-72
2022/01/18 02:44:27;;;;;;;;;;;23.70;50.70;;;;;;1585399;74;1715;-71
2022/01/18 02:46:29;;;;;;;;;;;23.60;50.70;;;;;;1606252;73;786;-70
2022/01/18 02:48:31;;;;;;;;;;;23.70;50.70;;;;;;1594094;73;713;-71
2022/01/18 02:50:33;;;;;;;;;;;23.60;50.60;;;;;;1594221;73;1078;-69
2022/01/18 02:52:35;;;;;;;;;;;23.60;50.60;;;;;;1598733;73;800;-70
2022/01/18 02:54:36;;;;;;;;;;;23.60;50.60;;;;;;1615244;73;668;-69
2022/01/18 02:56:45;;;;;;;;;;;23.60;50.60;;;;;;1592839;74;750;-69
2022/01/18 02:58:46;;;;;;;;;;;23.70;50.70;;;;;;1577709;74;1614;-69
2022/01/18 03:03:15;;;;;;;;;;;23.70;50.70;;;;;;1612464;73;1916;-69
2022/01/18 03:05:17;;;;;;;;;;;23.60;50.60;;;;;;1559842;75;702;-74
2022/01/18 03:07:19;;;;;;;;;;;23.60;50.60;;;;;;1588375;74;795;-68
2022/01/18 03:09:21;;;;;;;;;;;23.60;50.60;;;;;;1602885;73;1094;-71
2022/01/18 03:11:22;;;;;;;;;;;23.60;50.60;;;;;;1595196;73;674;-70
2022/01/18 03:13:24;;;;;;;;;;;23.60;50.60;;;;;;1594999;73;720;-68
2022/01/18 03:15:26;;;;;;;;;;;23.60;50.60;;;;;;1592252;73;813;-69
2022/01/18 03:17:28;;;;;;;;;;;23.60;50.60;;;;;;1601031;73;841;-69
2022/01/18 03:19:30;;;;;;;;;;;23.60;50.60;;;;;;1595586;73;1274;-69
2022/01/18 03:21:32;;;;;;;;;;;23.60;50.60;;;;;;1597817;74;763;-69
2022/01/18 03:23:34;;;;;;;;;;;23.60;50.60;;;;;;1602566;73;1932;-68
2022/01/18 03:29:59;;;;;;;;;;;23.60;50.60;;;;;;1589537;73;1701;-69
2022/01/18 03:32:01;;;;;;;;;;;23.60;50.60;;;;;;1592365;74;744;-69
2022/01/18 03:34:02;;;;;;;;;;;23.60;50.70;;;;;;1582085;74;780;-69
2022/01/18 03:36:05;;;;;;;;;;;23.70;50.80;;;;;;1580371;75;783;-69
2022/01/18 03:38:07;;;;;;;;;;;23.70;50.90;;;;;;1596023;73;768;-70
2022/01/18 03:40:09;;;;;;;;;;;23.70;50.90;;;;;;1598778;73;1149;-69
2022/01/18 03:42:34;;;;;;;;;;;23.70;50.90;;;;;;1592485;73;685;-69
2022/01/18 03:44:14;;;;;;;;;;;23.70;50.90;;;;;;1591903;73;1937;-72
2022/01/18 03:46:17;;;;;;;;;;;23.70;50.90;;;;;;1596271;73;729;-69
2022/01/18 03:48:38;;;;;;;;;;;23.70;50.80;;;;;;1595917;73;777;-73
2022/01/18 03:50:38;;;;;;;;;;;23.70;50.90;;;;;;1595928;73;1743;-68
2022/01/18 03:52:40;;;;;;;;;;;23.70;50.90;;;;;;1593529;73;727;-69
2022/01/18 03:54:47;;;;;;;;;;;23.70;50.90;;;;;;1558605;76;799;-69
2022/01/18 03:56:46;;;;;;;;;;;23.70;50.90;;;;;;1563179;75;1655;-69
2022/01/18 03:58:48;;;;;;;;;;;23.70;50.80;;;;;;1595551;73;757;-70
2022/01/18 04:00:50;;;;;;;;;;;23.70;50.80;;;;;;1555357;75;774;-74
2022/01/18 04:02:52;;;;;;;;;;;23.90;50.90;;;;;;1570258;74;1961;-72
2022/01/18 04:04:54;;;;;;;;;;;23.70;50.80;;;;;;1570951;75;792;-71
2022/01/18 04:06:56;;;;;;;;;;;23.80;50.80;;;;;;1567514;75;816;-69
2022/01/18 04:08:57;;;;;;;;;;;23.90;51.00;;;;;;1566694;74;1138;-69
2022/01/18 04:10:59;;;;;;;;;;;24.00;50.80;;;;;;1591450;74;732;-68
2022/01/18 04:13:01;;;;;;;;;;;23.90;50.80;;;;;;1594098;74;787;-68
2022/01/18 04:15:03;;;;;;;;;;;23.90;50.90;;;;;;1581734;74;748;-69
2022/01/18 04:17:14;;;;;;;;;;;23.90;50.80;;;;;;1577550;75;719;-69
2022/01/18 04:28:42;;;;;;;;;;;23.90;50.80;;;;;;1596057;73;873;-67
2022/01/18 04:30:42;;;;;;;;;;;23.90;50.70;;;;;;1592531;73;1475;-69
2022/01/18 04:32:43;;;;;;;;;;;23.90;50.70;;;;;;1597010;73;816;-72
2022/01/18 04:34:45;;;;;;;;;;;24.00;50.70;;;;;;1592991;73;812;-67
2022/01/18 04:36:48;;;;;;;;;;;24.00;50.60;;;;;;1558286;76;780;-67
2022/01/18 04:38:50;;;;;;;;;;;23.90;50.60;;;;;;1562288;75;1157;-71
2022/01/18 04:40:52;;;;;;;;;;;24.00;50.60;;;;;;1596445;73;792;-70
2022/01/18 04:49:37;;;;;;;;;;;24.00;50.50;;;;;;1596012;73;1636;-68
2022/01/18 04:51:40;;;;;;;;;;;24.00;50.50;;;;;;1596935;73;745;-68
2022/01/18 04:53:48;;;;;;;;;;;24.00;50.50;;;;;;1595074;73;803;-68
2022/01/18 04:55:53;;;;;;;;;;;24.00;50.50;;;;;;1553846;76;1691;-68
2022/01/18 04:57:53;;;;;;;;;;;23.90;50.50;;;;;;1566231;75;1618;-73
2022/01/18 04:59:55;;;;;;;;;;;24.00;50.40;;;;;;1578622;75;1185;-67
2022/01/18 05:01:57;;;;;;;;;;;24.00;50.50;;;;;;1596253;73;739;-68
2022/01/18 05:03:58;;;;;;;;;;;24.00;50.50;;;;;;1595554;73;1933;-68
2022/01/18 05:06:07;;;;;;;;;;;24.10;50.50;;;;;;1593883;73;718;-67
2022/01/18 05:08:06;;;;;;;;;;;24.00;50.50;;;;;;1595032;73;1622;-68
2022/01/18 05:10:08;;;;;;;;;;;24.00;50.40;;;;;;1598169;73;1963;-70
2022/01/18 05:12:17;;;;;;;;;;;24.00;50.40;;;;;;1595340;73;756;-73
2022/01/18 05:16:42;;;;;;;;;;;24.00;50.30;;;;;;1596903;73;801;-67
2022/01/18 05:23:12;;;;;;;;;;;24.00;50.30;;;;;;1592516;73;854;-75
2022/01/18 05:24:48;;;;;;;;;;;24.00;50.30;;;;;;1585662;73;1905;-68
2022/01/18 05:26:50;;;;;;;;;;;24.00;50.30;;;;;;1555340;76;726;-72
2022/01/18 05:28:52;;;;;;;;;;;24.00;50.30;;;;;;1595764;73;1117;-68
2022/01/18 05:30:54;;;;;;;;;;;24.00;50.30;;;;;;1596064;73;723;-69
2022/01/18 05:32:56;;;;;;;;;;;24.10;50.50;;;;;;1598605;73;799;-68
2022/01/18 05:34:58;;;;;;;;;;;24.00;50.40;;;;;;1596792;73;686;-68
2022/01/18 05:36:59;;;;;;;;;;;24.00;50.40;;;;;;1594871;73;758;-71
2022/01/18 05:39:02;;;;;;;;;;;24.10;50.50;;;;;;1595807;73;1129;-72
2022/01/18 05:41:04;;;;;;;;;;;24.00;50.30;;;;;;1605622;73;770;-72
2022/01/18 05:43:06;;;;;;;;;;;24.00;50.30;;;;;;1600301;73;775;-72
2022/01/18 05:45:09;;;;;;;;;;;24.10;50.50;;;;;;1594320;73;1917;-71
2022/01/18 05:47:10;;;;;;;;;;;24.10;50.50;;;;;;1595015;73;782;-70
2022/01/18 05:49:12;;;;;;;;;;;24.10;50.50;;;;;;1593812;73;1143;-72
2022/01/18 05:51:14;;;;;;;;;;;24.10;50.40;;;;;;1595167;73;750;-78
2022/01/18 05:53:16;;;;;;;;;;;24.20;50.40;;;;;;1594876;73;700;-71
2022/01/18 05:55:18;;;;;;;;;;;24.20;50.40;;;;;;1594983;73;787;-70
2022/01/18 05:57:20;;;;;;;;;;;24.20;50.30;;;;;;1583175;73;755;-70
2022/01/18 05:59:23;;;;;;;;;;;24.20;50.40;;;;;;1602850;73;1220;-71
2022/01/18 06:01:31;;;;;;;;;;;24.20;50.30;;;;;;1567236;76;710;-72
2022/01/18 06:03:49;;;;;;;;;;;24.20;50.30;;;;;;1564328;75;1930;-70
2022/01/18 06:07:55;;;;;;;;;;;24.30;50.40;;;;;;1566130;75;1634;-79
2022/01/18 06:09:57;;;;;;;;;;;24.20;50.20;;;;;;1564505;76;1157;-72
2022/01/18 06:11:59;;;;;;;;;;;24.30;50.40;;;;;;1559630;75;774;-70
2022/01/18 06:14:01;;;;;;;;;;;24.30;50.30;;;;;;1569639;75;749;-73
2022/01/18 06:16:03;;;;;;;;;;;24.30;50.30;;;;;;1570583;75;701;-70
2022/01/18 06:18:05;;;;;;;;;;;24.30;50.30;;;;;;1571311;75;734;-70
2022/01/18 06:20:07;;;;;;;;;;;24.30;50.30;;;;;;1572647;73;1110;-71
2022/01/18 06:22:09;;;;;;;;;;;24.30;50.20;;;;;;1566714;74;777;-72
2022/01/18 06:24:11;;;;;;;;;;;24.30;50.20;;;;;;1575965;75;1924;-72
2022/01/18 06:26:18;;;;;;;;;;;24.30;50.20;;;;;;1567506;74;793;-72
2022/01/18 06:28:17;;;;;;;;;;;24.30;50.20;;;;;;1556607;75;884;-74
2022/01/18 06:30:19;;;;;;;;;;;24.30;50.20;;;;;;1579647;74;1161;-72
2022/01/18 06:32:21;;;;;;;;;;;24.30;50.20;;;;;;1583545;73;767;-72
2022/01/18 06:34:23;;;;;;;;;;;24.30;50.20;;;;;;1558456;75;795;-71
2022/01/18 06:36:24;;;;;;;;;;;24.30;50.20;;;;;;1579236;74;727;-73
2022/01/18 06:38:26;;;;;;;;;;;24.30;50.20;;;;;;1585534;74;726;-72
2022/01/18 06:40:28;;;;;;;;;;;24.30;50.20;;;;;;1609178;73;1125;-75
2022/01/18 06:42:30;;;;;;;;;;;24.20;50.10;;;;;;1575786;75;744;-72
2022/01/18 06:44:32;;;;;;;;;;;24.20;50.20;;;;;;1585355;75;1945;-72
2022/01/18 06:46:34;;;;;;;;;;;24.20;50.20;;;;;;1586610;75;789;-80
2022/01/18 06:48:36;;;;;;;;;;;24.20;50.20;;;;;;1606796;73;749;-72
2022/01/18 06:50:38;;;;;;;;;;;24.10;50.00;;;;;;1559449;75;1113;-70
2022/01/18 06:52:40;;;;;;;;;;;24.20;50.00;;;;;;1565846;75;784;-72
2022/01/18 06:54:41;;;;;;;;;;;24.10;50.00;;;;;;1560525;75;797;-70
2022/01/18 06:56:47;;;;;;;;;;;24.10;50.00;;;;;;1592290;73;763;-72
2022/01/18 06:58:47;;;;;;;;;;;24.10;50.00;;;;;;1594862;73;1717;-70
2022/01/18 07:00:49;;;;;;;;;;;24.20;50.00;;;;;;1552918;76;1211;-69
2022/01/18 07:02:51;;;;;;;;;;;24.10;49.90;;;;;;1566531;76;656;-73
2022/01/18 07:04:53;;;;;;;;;;;24.10;50.00;;;;;;1599519;73;1936;-73
2022/01/18 07:06:55;;;;;;;;;;;24.00;49.80;;;;;;1554723;75;736;-73
2022/01/18 07:08:57;;;;;;;;;;;24.20;49.90;;;;;;1593605;73;1131;-70
2022/01/18 07:10:58;;;;;;;;;;;24.10;49.80;;;;;;1566721;76;785;-69
2022/01/18 07:13:01;;;;;;;;;;;24.10;49.70;;;;;;1597211;73;765;-70
2022/01/18 07:15:03;;;;;;;;;;;24.10;49.70;;;;;;1602703;73;757;-70
2022/01/18 07:17:05;;;;;;;;;;;24.10;49.60;;;;;;1595847;73;715;-69
2022/01/18 07:19:07;;;;;;;;;;;24.00;49.40;;;;;;1598010;73;1083;-69
2022/01/18 07:21:09;;;;;;;;;;;24.00;49.50;;;;;;1591670;73;788;-67
2022/01/18 07:23:12;;;;;;;;;;;24.10;49.50;;;;;;1595761;73;713;-69
2022/01/18 07:25:17;;;;;;;;;;;24.00;49.50;;;;;;1592610;73;1917;-69
2022/01/18 07:27:18;;;;;;;;;;;24.00;49.40;;;;;;1565522;75;1649;-72
2022/01/18 07:29:20;;;;;;;;;;;24.00;49.40;;;;;;1587508;74;1129;-69
2022/01/18 07:31:22;;;;;;;;;;;24.00;49.40;;;;;;1585677;74;769;-70
2022/01/18 07:33:24;;;;;;;;;;;24.00;49.40;;;;;;1582892;74;782;-69
2022/01/18 07:35:27;;;;;;;;;;;24.00;49.30;;;;;;1582234;74;736;-72
2022/01/18 07:37:29;;;;;;;;;;;24.00;49.20;;;;;;1584712;74;719;-72
2022/01/18 07:39:31;;;;;;;;;;;24.00;49.20;;;;;;1583892;74;1130;-68
2022/01/18 07:41:32;;;;;;;;;;;24.00;49.30;;;;;;1585346;74;770;-67
2022/01/18 07:43:37;;;;;;;;;;;24.00;49.30;;;;;;1584497;74;722;-67
2022/01/18 07:45:38;;;;;;;;;;;24.00;49.40;;;;;;1581650;74;1922;-72
2022/01/18 07:47:40;;;;;;;;;;;24.00;49.10;;;;;;1584851;74;723;-71
2022/01/18 07:49:42;;;;;;;;;;;24.10;48.10;;;;;;1589132;74;1155;-71
2022/01/18 07:51:44;;;;;;;;;;;24.00;47.40;;;;;;1589974;74;809;-71
2022/01/18 07:53:46;;;;;;;;;;;24.00;46.80;;;;;;1590787;74;752;-78
2022/01/18 07:55:48;;;;;;;;;;;23.90;46.20;;;;;;1591374;74;806;-69
2022/01/18 07:57:49;;;;;;;;;;;23.80;45.40;;;;;;1584026;75;753;-70
2022/01/18 07:59:51;;;;;;;;;;;23.80;45.40;;;;;;1583593;74;1190;-70
2022/01/18 08:01:54;;;;;;;;;;;23.70;45.20;;;;;;1585281;74;788;-70
2022/01/18 08:03:56;;;;;;;;;;;23.70;45.00;;;;;;1581254;75;756;-70
2022/01/18 08:05:57;;;;;;;;;;;23.70;44.90;;;;;;1585340;74;1927;-69
2022/01/18 08:08:00;;;;;;;;;;;23.70;44.80;;;;;;1584339;74;699;-70
2022/01/18 08:10:03;;;;;;;;;;;23.60;44.50;;;;;;1584750;74;1151;-70
2022/01/18 08:12:05;;;;;;;;;;;23.60;44.60;;;;;;1583347;74;697;-71
2022/01/18 08:14:13;;;;;;;;;;;23.60;44.50;;;;;;1584718;74;766;-69
2022/01/18 08:18:32;;;;;;;;;;;23.50;44.30;;;;;;1581546;75;806;-67
2022/01/18 08:20:34;;;;;;;;;;;23.40;44.00;;;;;;1583288;74;1075;-69
2022/01/18 08:22:36;;;;;;;;;;;23.60;45.00;;;;;;1582193;74;744;-71
2022/01/18 08:24:38;;;;;;;;;;;23.50;45.50;;;;;;1584589;75;1927;-71
2022/01/18 08:26:40;;;;;;;;;;;23.60;45.80;;;;;;1586688;74;720;-72
2022/01/18 08:28:42;;;;;;;;;;;23.50;46.00;;;;;;1592544;74;733;-71
2022/01/18 08:30:44;;;;;;;;;;;23.60;46.20;;;;;;1559285;75;1097;-68
2022/01/18 08:32:46;;;;;;;;;;;23.60;46.30;;;;;;1598121;74;805;-68
2022/01/18 08:34:48;;;;;;;;;;;23.70;46.50;;;;;;1566495;76;750;-71
2022/01/18 08:36:51;;;;;;;;;;;23.70;46.50;;;;;;1566509;75;759;-74
2022/01/18 08:38:53;;;;;;;;;;;23.70;46.60;;;;;;1565755;74;1227;-70
2022/01/18 08:40:56;;;;;;;;;;;23.80;46.70;;;;;;1594099;73;793;-69
2022/01/18 08:42:58;;;;;;;;;;;23.90;46.80;;;;;;1597272;74;809;-69
2022/01/18 08:45:00;;;;;;;;;;;23.90;46.90;;;;;;1597025;74;1945;-70
2022/01/18 08:47:03;;;;;;;;;;;23.90;46.90;;;;;;1588038;73;771;-68
2022/01/18 08:49:05;;;;;;;;;;;23.90;46.90;;;;;;1592792;73;1155;-72
2022/01/18 08:51:07;;;;;;;;;;;23.90;46.90;;;;;;1597011;74;904;-70
2022/01/18 08:53:09;;;;;;;;;;;24.00;46.90;;;;;;1593017;74;772;-72
2022/01/18 08:55:11;;;;;;;;;;;23.90;46.90;;;;;;1597130;74;818;-72
2022/01/18 08:57:13;;;;;;;;;;;24.00;46.90;;;;;;1595479;74;856;-71
2022/01/18 08:59:15;;;;;;;;;;;24.00;47.00;;;;;;1594266;73;1192;-68
2022/01/18 09:01:17;;;;;;;;;;;24.00;47.00;;;;;;1597237;74;758;-68
2022/01/18 09:03:19;;;;;;;;;;;24.00;47.20;;;;;;1597333;74;760;-68
2022/01/18 09:05:23;;;;;;;;;;;24.00;47.20;;;;;;1597162;74;1933;-69
2022/01/18 09:07:24;;;;;;;;;;;23.90;47.30;;;;;;1596841;73;1666;-72
2022/01/18 09:09:26;;;;;;;;;;;23.90;47.40;;;;;;1597571;74;1124;-70
2022/01/18 09:11:30;;;;;;;;;;;24.00;47.50;;;;;;1597649;74;794;-69
2022/01/18 09:13:34;;;;;;;;;;;23.90;47.60;;;;;;1597362;74;1666;-70
2022/01/18 09:15:35;;;;;;;;;;;23.90;47.60;;;;;;1597181;73;858;-70
2022/01/18 09:17:37;;;;;;;;;;;23.90;47.60;;;;;;1597454;74;679;-70
2022/01/18 09:19:39;;;;;;;;;;;23.90;47.60;;;;;;1596520;73;1166;-70
2022/01/18 09:21:42;;;;;;;;;;;24.00;47.70;;;;;;1597739;74;663;-70
2022/01/18 09:23:44;;;;;;;;;;;23.90;47.70;;;;;;1597548;74;779;-70
2022/01/18 09:25:46;;;;;;;;;;;24.00;47.80;;;;;;1595275;74;1928;-70
2022/01/18 09:27:48;;;;;;;;;;;24.00;47.80;;;;;;1593011;73;777;-70
2022/01/18 09:29:50;;;;;;;;;;;24.00;47.70;;;;;;1597224;74;1166;-69
2022/01/18 09:31:52;;;;;;;;;;;23.90;47.80;;;;;;1595860;74;761;-69
2022/01/18 09:33:54;;;;;;;;;;;24.00;47.80;;;;;;1597238;74;729;-71
2022/01/18 09:35:56;;;;;;;;;;;24.00;47.80;;;;;;1592351;74;758;-70
2022/01/18 09:37:58;;;;;;;;;;;24.00;47.80;;;;;;1583793;74;800;-71
2022/01/18 09:40:00;;;;;;;;;;;24.00;47.80;;;;;;1580257;74;1133;-73
2022/01/18 09:42:03;;;;;;;;;;;24.00;47.80;;;;;;1581633;74;765;-70
2022/01/18 09:44:05;;;;;;;;;;;24.00;47.80;;;;;;1586952;74;797;-71
2022/01/18 09:46:07;;;;;;;;;;;24.00;47.80;;;;;;1586647;74;1922;-70
2022/01/18 09:48:09;;;;;;;;;;;24.00;47.90;;;;;;1581649;74;768;-70
2022/01/18 09:50:12;;;;;;;;;;;24.00;47.90;;;;;;1579030;74;1091;-71
2022/01/18 09:52:14;;;;;;;;;;;24.10;48.00;;;;;;1589215;74;729;-70
2022/01/18 09:54:16;;;;;;;;;;;24.00;47.80;;;;;;1587960;74;719;-69
2022/01/18 09:56:18;;;;;;;;;;;24.10;48.00;;;;;;1590361;74;805;-70
2022/01/18 09:58:20;;;;;;;;;;;24.10;48.00;;;;;;1587511;74;777;-70
2022/01/18 10:00:23;;;;;;;;;;;24.10;48.00;;;;;;1584775;74;1204;-69
2022/01/18 10:02:25;;;;;;;;;;;24.10;47.90;;;;;;1589905;74;774;-70
2022/01/18 10:04:31;;;;;;;;;;;24.10;47.90;;;;;;1585861;74;709;-68
2022/01/18 10:06:30;;;;;;;;;;;24.10;47.80;;;;;;1583789;74;1925;-70
2022/01/18 10:08:32;;;;;;;;;;;24.20;47.80;;;;;;1566254;75;906;-70
2022/01/18 10:10:35;;;;;;;;;;;24.20;47.80;;;;;;1591697;74;1124;-72
2022/01/18 10:12:37;;;;;;;;;;;24.20;47.80;;;;;;1576080;74;699;-69
2022/01/18 10:14:39;;;;;;;;;;;24.20;47.80;;;;;;1580672;75;637;-69
2022/01/18 10:16:43;;;;;;;;;;;24.20;47.70;;;;;;1572289;74;758;-71
2022/01/18 10:18:48;;;;;;;;;;;24.20;47.70;;;;;;1579900;74;787;-71
2022/01/18 10:20:52;;;;;;;;;;;24.30;47.80;;;;;;1592208;74;1080;-69
2022/01/18 10:22:54;;;;;;;;;;;24.20;47.70;;;;;;1587025;74;694;-68
2022/01/18 10:24:55;;;;;;;;;;;24.20;47.70;;;;;;1584726;74;781;-72
2022/01/18 10:26:57;;;;;;;;;;;24.30;47.80;;;;;;1580664;74;1922;-72
2022/01/18 10:29:00;;;;;;;;;;;24.30;47.50;;;;;;1581937;74;1120;-74
2022/01/18 10:31:06;;;;;;;;;;;24.30;47.40;;;;;;1584961;74;713;-73
2022/01/18 10:33:16;;;;;;;;;;;24.20;47.30;;;;;;1593907;74;1069;-73
2022/01/18 10:35:13;;;;;;;;;;;24.20;47.40;;;;;;1578574;74;1033;-72
2022/01/18 10:37:15;;;;;;;;;;;24.20;47.40;;;;;;1594262;74;967;-73
2022/01/18 10:39:19;;;;;;;;;;;24.10;47.40;;;;;;1565842;74;1155;-73
2022/01/18 10:41:24;;;;;;;;;;;24.10;47.50;;;;;;1573951;74;1772;-73
2022/01/18 10:43:33;;;;;;;;;;;24.20;47.50;;;;;;1573646;75;714;-74
2022/01/18 10:45:39;;;;;;;;;;;24.10;47.50;;;;;;1575416;74;1927;-71
2022/01/18 10:47:37;;;;;;;;;;;24.10;47.50;;;;;;1583452;74;965;-74
2022/01/18 10:49:46;;;;;;;;;;;24.00;47.40;;;;;;1583942;74;1137;-72
2022/01/18 10:51:48;;;;;;;;;;;24.00;47.40;;;;;;1579968;74;1080;-72
2022/01/18 10:53:57;;;;;;;;;;;24.00;47.40;;;;;;1583916;74;792;-71
2022/01/18 10:56:14;;;;;;;;;;;24.00;47.40;;;;;;1583929;74;723;-74
2022/01/18 10:58:18;;;;;;;;;;;24.10;47.60;;;;;;1580152;74;744;-73
2022/01/18 11:00:22;;;;;;;;;;;24.00;47.30;;;;;;1570303;74;1593;-72
2022/01/18 11:02:24;;;;;;;;;;;24.00;47.40;;;;;;1575536;74;738;-72
2022/01/18 11:04:25;;;;;;;;;;;24.00;47.50;;;;;;1584716;75;657;-73
2022/01/18 11:06:27;;;;;;;;;;;24.00;47.40;;;;;;1565744;74;1946;-75
2022/01/18 11:08:29;;;;;;;;;;;24.00;47.40;;;;;;1583390;74;820;-73
2022/01/18 11:10:32;;;;;;;;;;;24.00;47.40;;;;;;1565531;75;1149;-72
2022/01/18 11:12:44;;;;;;;;;;;24.00;47.50;;;;;;1584868;75;748;-73
2022/01/18 11:14:49;;;;;;;;;;;24.00;47.40;;;;;;1584433;74;746;-74
2022/01/18 11:16:50;;;;;;;;;;;24.00;47.50;;;;;;1584659;74;1076;-71
2022/01/18 11:18:51;;;;;;;;;;;24.00;47.50;;;;;;1581907;74;1183;-71
2022/01/18 11:20:53;;;;;;;;;;;24.00;47.50;;;;;;1594592;74;716;-73
2022/01/18 11:22:55;;;;;;;;;;;24.00;47.40;;;;;;1591159;74;627;-72
2022/01/18 11:24:58;;;;;;;;;;;23.90;47.40;;;;;;1588422;74;844;-72
2022/01/18 11:27:03;;;;;;;;;;;24.00;47.40;;;;;;1593807;74;1929;-72
2022/01/18 11:29:04;;;;;;;;;;;24.00;47.40;;;;;;1579711;73;1672;-73
2022/01/18 11:31:10;;;;;;;;;;;24.00;47.40;;;;;;1594559;74;713;-72
2022/01/18 11:33:11;;;;;;;;;;;24.00;47.40;;;;;;1594096;74;953;-73
2022/01/18 11:35:17;;;;;;;;;;;24.00;47.40;;;;;;1591981;73;818;-72
2022/01/18 11:37:21;;;;;;;;;;;23.90;47.40;;;;;;1594562;74;721;-71
2022/01/18 11:39:23;;;;;;;;;;;24.00;47.40;;;;;;1571158;74;1183;-73
2022/01/18 11:41:25;;;;;;;;;;;24.00;47.30;;;;;;1570908;75;1168;-70
2022/01/18 11:43:29;;;;;;;;;;;24.00;47.30;;;;;;1582746;74;740;-73
2022/01/18 11:45:32;;;;;;;;;;;23.90;47.30;;;;;;1583433;73;1927;-73
2022/01/18 11:47:33;;;;;;;;;;;24.00;47.40;;;;;;1557384;75;661;-70
2022/01/18 11:49:36;;;;;;;;;;;23.90;47.30;;;;;;1576354;75;1144;-72
2022/01/18 11:51:54;;;;;;;;;;;23.90;47.30;;;;;;1576686;75;772;-72
2022/01/18 11:54:06;;;;;;;;;;;23.90;47.30;;;;;;1566823;75;1575;-71
2022/01/18 11:55:59;;;;;;;;;;;23.90;47.30;;;;;;1592692;74;1628;-72
2022/01/18 11:58:02;;;;;;;;;;;24.00;47.40;;;;;;1594128;74;754;-72
2022/01/18 12:00:09;;;;;;;;;;;24.00;47.30;;;;;;1592480;73;1817;-72
2022/01/18 12:02:11;;;;;;;;;;;24.00;47.40;;;;;;1594683;74;689;-71
2022/01/18 12:04:13;;;;;;;;;;;24.00;47.40;;;;;;1594470;74;710;-70
2022/01/18 12:06:15;;;;;;;;;;;23.90;47.40;;;;;;1592266;73;1938;-74
2022/01/18 12:08:21;;;;;;;;;;;24.00;47.40;;;;;;1588273;74;770;-71
2022/01/18 12:10:32;;;;;;;;;;;23.90;47.30;;;;;;1569886;74;1536;-71
2022/01/18 12:12:46;;;;;;;;;;;24.00;47.40;;;;;;1594438;74;757;-78
2022/01/18 12:14:48;;;;;;;;;;;24.00;47.50;;;;;;1578505;75;1284;-75
2022/01/18 12:16:50;;;;;;;;;;;24.00;47.50;;;;;;1566947;75;778;-72
2022/01/18 12:18:53;;;;;;;;;;;24.00;47.50;;;;;;1565719;74;1143;-75
2022/01/18 12:20:56;;;;;;;;;;;23.90;47.40;;;;;;1566753;76;777;-71
2022/01/18 12:23:04;;;;;;;;;;;24.00;47.40;;;;;;1565780;76;687;-71
2022/01/18 12:25:20;;;;;;;;;;;24.00;47.40;;;;;;1578903;74;707;-74
2022/01/18 12:27:31;;;;;;;;;;;24.00;47.40;;;;;;1567797;73;1924;-70
2022/01/18 12:33:51;;;;;;;;;;;24.00;47.20;;;;;;1558322;75;810;-71
2022/01/18 12:35:55;;;;;;;;;;;24.00;47.20;;;;;;1577080;75;728;-71
2022/01/18 12:37:57;;;;;;;;;;;23.90;47.20;;;;;;1578007;75;1471;-71
2022/01/18 12:40:05;;;;;;;;;;;23.90;47.20;;;;;;1579585;75;1156;-71
2022/01/18 12:42:12;;;;;;;;;;;23.90;47.20;;;;;;1565886;76;856;-73
2022/01/18 12:44:21;;;;;;;;;;;23.90;47.20;;;;;;1597058;74;1625;-71
2022/01/18 12:46:23;;;;;;;;;;;23.90;47.20;;;;;;1594157;73;1929;-71
2022/01/18 12:48:25;;;;;;;;;;;23.90;47.10;;;;;;1567168;73;754;-71
2022/01/18 12:50:28;;;;;;;;;;;23.90;47.10;;;;;;1594365;73;1116;-72
2022/01/18 12:52:47;;;;;;;;;;;24.00;47.10;;;;;;1580032;74;791;-74
2022/01/18 12:54:49;;;;;;;;;;;23.90;46.70;;;;;;1578255;75;1796;-70
2022/01/18 12:56:50;;;;;;;;;;;23.90;46.30;;;;;;1587390;74;772;-71
2022/01/18 12:58:52;;;;;;;;;;;23.90;46.40;;;;;;1592187;73;1139;-75
2022/01/18 13:00:55;;;;;;;;;;;23.90;46.50;;;;;;1594090;74;756;-70
2022/01/18 13:03:00;;;;;;;;;;;23.90;46.50;;;;;;1581164;74;779;-72
2022/01/18 13:05:02;;;;;;;;;;;23.90;46.50;;;;;;1574561;75;788;-71
2022/01/18 13:07:04;;;;;;;;;;;23.90;46.70;;;;;;1597286;74;1937;-70
2022/01/18 13:09:06;;;;;;;;;;;23.90;46.70;;;;;;1594396;73;1186;-71
2022/01/18 13:11:09;;;;;;;;;;;23.90;46.70;;;;;;1597528;74;816;-71
2022/01/18 13:13:13;;;;;;;;;;;24.00;46.70;;;;;;1579364;73;660;-70
2022/01/18 13:15:23;;;;;;;;;;;23.90;46.70;;;;;;1597187;74;1713;-71
2022/01/18 13:26:58;;;;;;;;;;;24.00;46.80;;;;;;1557325;75;1930;-72
2022/01/18 13:28:53;;;;;;;;;;;23.90;46.70;;;;;;1560387;75;1586;-71